Time;durP1;ratioP1;P1;durP2;ratioP2;P2;SDS_P1;SDS_P2;PMS_P1;PMS_P2;Temp;Humidity;BMP_temperature;BMP_pressure;BME280_temperature;BME280_humidity;BME280_pressure;Samples;Min_cycle;Max_cycle;Signal;HPM_P1;HPM_P2
2024/04/07 00:02:04;;;;;;;8.10;7.50;;;24.10;29.30;;;;;;5128553;27;20131;-57
2024/04/07 00:04:31;;;;;;;1.98;0.90;;;24.00;29.30;;;;;;5126645;28;20155;-58
2024/04/07 00:07:00;;;;;;;4.00;1.10;;;24.10;30.00;;;;;;5130064;27;20201;-58
2024/04/07 00:09:27;;;;;;;3.55;1.10;;;24.20;30.20;;;;;;5127940;27;20114;-59
2024/04/07 00:11:54;;;;;;;1.73;0.88;;;24.10;29.90;;;;;;5124050;28;20094;-58
2024/04/07 00:14:21;;;;;;;1.52;0.70;;;24.20;29.60;;;;;;5106613;28;20569;-58
2024/04/07 00:16:47;;;;;;;6.30;1.10;;;24.10;29.40;;;;;;5126933;28;20153;-58
2024/04/07 00:19:13;;;;;;;5.20;1.00;;;24.10;29.50;;;;;;5123475;27;20072;-59
2024/04/07 00:21:40;;;;;;;4.32;0.98;;;23.80;29.60;;;;;;5128243;28;20060;-58
2024/04/07 00:24:07;;;;;;;3.13;0.77;;;23.90;29.30;;;;;;5124461;28;20401;-58
2024/04/07 00:26:33;;;;;;;4.13;0.80;;;23.90;29.60;;;;;;5109866;28;20509;-55
2024/04/07 00:29:00;;;;;;;7.45;1.50;;;23.70;28.90;;;;;;5127525;28;20067;-56
2024/04/07 00:31:26;;;;;;;2.72;1.83;;;23.70;29.10;;;;;;5110851;28;20067;-60
2024/04/07 00:33:53;;;;;;;1.65;1.13;;;23.70;29.10;;;;;;5123918;28;20071;-58
2024/04/07 00:36:19;;;;;;;3.60;1.40;;;23.70;28.90;;;;;;5126058;28;20072;-58
2024/04/07 00:38:47;;;;;;;0.93;0.80;;;23.60;29.00;;;;;;5128862;28;20636;-56
2024/04/07 00:41:14;;;;;;;2.80;0.88;;;23.50;29.30;;;;;;5119768;28;20063;-58
2024/04/07 00:43:40;;;;;;;1.65;0.70;;;23.20;29.10;;;;;;5129728;28;20652;-56
2024/04/07 00:46:07;;;;;;;1.15;0.82;;;23.10;29.30;;;;;;5125487;28;20119;-58
2024/04/07 00:48:34;;;;;;;3.83;0.80;;;23.00;29.70;;;;;;5126159;28;20068;-57
2024/04/07 00:51:01;;;;;;;1.00;0.70;;;22.80;30.10;;;;;;5128163;28;20076;-57
2024/04/07 00:53:28;;;;;;;4.30;1.00;;;22.70;30.00;;;;;;5126036;28;20110;-59
2024/04/07 00:55:54;;;;;;;3.65;0.98;;;22.70;30.00;;;;;;5126904;28;20087;-58
2024/04/07 00:58:21;;;;;;;9.82;1.02;;;22.80;30.00;;;;;;5130702;28;20509;-58
2024/04/07 01:00:47;;;;;;;1.27;0.70;;;22.70;30.40;;;;;;5126118;28;20540;-58
2024/04/07 01:03:15;;;;;;;2.60;0.70;;;22.60;30.30;;;;;;5126659;28;20129;-57
2024/04/07 01:05:49;;;;;;;4.40;1.02;;;22.60;30.30;;;;;;5124540;28;20246;-57
2024/04/07 01:08:17;;;;;;;1.85;1.00;;;22.70;30.10;;;;;;5129589;27;20192;-57
2024/04/07 01:10:50;;;;;;;5.40;1.00;;;23.00;30.40;;;;;;5112114;27;20079;-56
2024/04/07 01:13:18;;;;;;;1.55;0.70;;;23.00;30.40;;;;;;5113101;27;20518;-58
2024/04/07 01:15:44;;;;;;;3.60;0.70;;;22.90;30.60;;;;;;5130101;27;20112;-58
2024/04/07 01:18:11;;;;;;;1.20;0.75;;;23.10;30.80;;;;;;5124650;27;20069;-59
2024/04/07 01:20:37;;;;;;;1.90;1.23;;;23.00;30.70;;;;;;5129839;27;20099;-61
2024/04/07 01:23:04;;;;;;;3.08;1.15;;;23.20;30.50;;;;;;5130284;27;20529;-58
2024/04/07 01:25:31;;;;;;;6.85;1.30;;;22.80;31.60;;;;;;5130935;27;20135;-57
2024/04/07 01:28:01;;;;;;;2.28;1.20;;;22.10;32.40;;;;;;5131762;27;20068;-58
2024/04/07 01:30:28;;;;;;;4.43;1.30;;;21.90;32.70;;;;;;5132169;27;20068;-58
2024/04/07 01:32:55;;;;;;;6.03;1.27;;;21.70;32.90;;;;;;5129280;27;20102;-58
2024/04/07 01:35:21;;;;;;;2.55;0.93;;;21.50;33.00;;;;;;5113392;27;20521;-58
2024/04/07 01:37:48;;;;;;;1.73;1.05;;;21.20;33.20;;;;;;5131313;27;20111;-58
2024/04/07 01:40:15;;;;;;;4.38;1.88;;;21.00;33.30;;;;;;5133372;27;20090;-58
2024/04/07 01:42:42;;;;;;;3.25;1.35;;;21.00;33.30;;;;;;5124168;27;20079;-58
2024/04/07 01:45:09;;;;;;;5.50;1.45;;;20.90;33.40;;;;;;5127727;27;20443;-58
2024/04/07 01:47:39;;;;;;;4.75;1.45;;;20.80;33.70;;;;;;5126730;27;20067;-58
2024/04/07 01:50:07;;;;;;;2.85;1.10;;;20.60;33.80;;;;;;5132139;27;20060;-59
2024/04/07 01:52:33;;;;;;;5.50;1.42;;;20.50;33.70;;;;;;5109739;27;20074;-57
2024/04/07 01:55:00;;;;;;;6.13;1.30;;;20.40;33.70;;;;;;5130191;27;20425;-56
2024/04/07 01:57:27;;;;;;;4.18;1.67;;;20.40;33.60;;;;;;5130094;27;20118;-58
2024/04/07 01:59:55;;;;;;;3.92;1.38;;;20.40;33.80;;;;;;5131588;27;20082;-57
2024/04/07 02:02:22;;;;;;;3.85;1.20;;;20.30;33.70;;;;;;5128718;27;20074;-58
2024/04/07 02:04:49;;;;;;;4.40;1.45;;;20.10;34.70;;;;;;5113320;27;20076;-58
2024/04/07 02:07:19;;;;;;;1.17;0.90;;;19.90;34.30;;;;;;5124250;27;20115;-59
2024/04/07 02:09:48;;;;;;;7.85;1.40;;;19.80;35.10;;;;;;5125132;27;20071;-59
2024/04/07 02:12:15;;;;;;;4.72;1.20;;;19.80;35.00;;;;;;5125007;27;20101;-58
2024/04/07 02:14:42;;;;;;;6.55;1.70;;;19.70;35.30;;;;;;5115219;27;20087;-60
2024/04/07 02:17:11;;;;;;;6.75;1.70;;;19.50;35.60;;;;;;5112306;27;20140;-60
2024/04/07 02:19:38;;;;;;;7.28;1.60;;;19.40;35.80;;;;;;5130526;27;20212;-59
2024/04/07 02:22:05;;;;;;;7.32;2.00;;;19.30;35.70;;;;;;5130660;27;20072;-59
2024/04/07 02:24:32;;;;;;;11.55;2.50;;;19.30;35.80;;;;;;5126839;27;20536;-57
2024/04/07 02:26:58;;;;;;;7.82;1.77;;;19.30;35.90;;;;;;5125003;27;20103;-47
2024/04/07 02:29:25;;;;;;;6.43;1.75;;;19.20;35.90;;;;;;5115189;27;20068;-48
2024/04/07 02:31:51;;;;;;;11.60;1.60;;;19.10;36.40;;;;;;5130254;27;20072;-47
2024/04/07 02:34:18;;;;;;;7.63;2.20;;;18.90;37.00;;;;;;5128419;27;20076;-46
2024/04/07 02:36:44;;;;;;;12.85;2.20;;;18.80;38.20;;;;;;5130691;27;20078;-55
2024/04/07 02:39:11;;;;;;;7.63;2.85;;;18.70;38.90;;;;;;5129245;27;20064;-47
2024/04/07 02:41:44;;;;;;;6.55;3.28;;;18.60;38.70;;;;;;5110726;27;20149;-47
2024/04/07 02:44:11;;;;;;;13.55;3.75;;;18.50;38.80;;;;;;5129201;27;20078;-47
2024/04/07 02:49:22;;;;;;;16.27;4.80;;;18.40;38.70;;;;;;5125200;27;20149;-52
2024/04/07 02:51:48;;;;;;;14.88;5.20;;;18.30;39.50;;;;;;5128588;27;20068;-47
2024/04/07 02:54:15;;;;;;;21.80;5.25;;;18.20;39.70;;;;;;5129816;27;20064;-50
2024/04/07 02:56:41;;;;;;;20.20;6.15;;;18.10;39.30;;;;;;5127539;27;20547;-51
2024/04/07 02:59:08;;;;;;;19.65;5.82;;;18.10;39.10;;;;;;5109462;27;20072;-48
2024/04/07 03:01:34;;;;;;;20.17;7.90;;;18.00;39.90;;;;;;5111311;27;20513;-49
2024/04/07 03:04:01;;;;;;;20.35;8.35;;;18.00;40.70;;;;;;5111964;27;21237;-51
2024/04/07 03:06:28;;;;;;;22.65;7.60;;;18.00;40.70;;;;;;5106988;28;20468;-50
2024/04/07 03:08:57;;;;;;;20.27;7.88;;;18.00;41.00;;;;;;5109692;28;20088;-52
2024/04/07 03:11:25;;;;;;;19.02;8.05;;;17.90;40.70;;;;;;5104633;28;21372;-54
2024/04/07 03:13:52;;;;;;;29.60;7.82;;;17.80;42.60;;;;;;5105896;28;20080;-50
2024/04/07 03:16:18;;;;;;;21.75;6.53;;;17.70;42.30;;;;;;5107245;28;20068;-49
2024/04/07 03:18:45;;;;;;;29.48;7.50;;;17.60;41.90;;;;;;5109872;28;20064;-49
2024/04/07 03:21:11;;;;;;;18.20;8.05;;;17.50;42.00;;;;;;5101216;28;20068;-49
2024/04/07 03:23:38;;;;;;;26.35;8.45;;;17.50;42.10;;;;;;5107953;28;20064;-49
2024/04/07 03:26:04;;;;;;;16.92;7.70;;;17.40;43.10;;;;;;5109444;28;20100;-49
2024/04/07 03:28:31;;;;;;;27.52;8.52;;;17.40;44.00;;;;;;5105921;28;20087;-50
2024/04/07 03:30:57;;;;;;;21.73;8.27;;;17.30;43.70;;;;;;5108640;28;20099;-49
2024/04/07 03:33:24;;;;;;;25.13;8.15;;;17.30;43.60;;;;;;5102088;28;20100;-48
2024/04/07 03:36:01;;;;;;;19.35;8.65;;;17.20;43.40;;;;;;5101812;28;20171;-52
2024/04/07 03:38:28;;;;;;;24.83;9.68;;;17.20;43.80;;;;;;5101088;28;20185;-50
2024/04/07 03:40:55;;;;;;;26.67;9.13;;;17.10;44.10;;;;;;5108297;28;20060;-48
2024/04/07 03:43:21;;;;;;;21.40;8.95;;;17.10;44.30;;;;;;5104849;28;20443;-48
2024/04/07 03:45:48;;;;;;;32.40;10.77;;;17.10;45.10;;;;;;5100554;28;20095;-49
2024/04/07 03:48:15;;;;;;;30.70;10.88;;;17.00;45.20;;;;;;5099641;27;20084;-49
2024/04/07 03:50:41;;;;;;;27.50;11.32;;;17.00;45.00;;;;;;5108328;28;20202;-48
2024/04/07 03:53:09;;;;;;;36.75;10.10;;;16.90;45.40;;;;;;5105010;27;20064;-47
2024/04/07 03:55:36;;;;;;;30.40;10.82;;;16.90;45.20;;;;;;5108297;28;20064;-50
2024/04/07 03:58:02;;;;;;;33.42;10.10;;;16.90;45.20;;;;;;5106411;28;20569;-55
2024/04/07 04:00:29;;;;;;;26.05;9.98;;;16.80;45.60;;;;;;5108079;28;20170;-47
2024/04/07 04:02:56;;;;;;;33.95;10.85;;;16.90;45.00;;;;;;5104186;28;20072;-48
2024/04/07 04:05:24;;;;;;;26.05;10.35;;;16.90;45.00;;;;;;5103684;28;20080;-48
2024/04/07 04:07:51;;;;;;;34.17;11.52;;;16.70;46.40;;;;;;5129267;27;20460;-47
2024/04/07 04:10:17;;;;;;;36.78;11.48;;;16.70;47.80;;;;;;5125413;27;20072;-46
2024/04/07 04:12:44;;;;;;;32.92;12.02;;;16.50;47.00;;;;;;5127819;27;20064;-48
2024/04/07 04:15:11;;;;;;;37.28;10.95;;;16.50;46.80;;;;;;5124023;28;20076;-46
2024/04/07 04:17:37;;;;;;;30.45;11.43;;;16.60;45.80;;;;;;5128408;28;20071;-47
2024/04/07 04:20:04;;;;;;;32.58;12.00;;;16.50;46.90;;;;;;5128338;28;20075;-51
2024/04/07 04:22:31;;;;;;;35.67;11.70;;;16.40;47.20;;;;;;5128767;28;20162;-50
2024/04/07 04:24:57;;;;;;;38.28;12.52;;;16.40;47.20;;;;;;5128220;28;20514;-46
2024/04/07 04:27:24;;;;;;;44.95;15.80;;;16.30;46.70;;;;;;5126003;28;20115;-48
2024/04/07 04:29:52;;;;;;;56.70;17.33;;;16.20;46.40;;;;;;5110815;28;20068;-50
2024/04/07 04:32:18;;;;;;;56.13;18.52;;;16.10;46.70;;;;;;5126742;28;20125;-48
2024/04/07 04:34:45;;;;;;;60.92;19.60;;;16.10;47.70;;;;;;5128791;28;20064;-47
2024/04/07 04:37:11;;;;;;;55.80;18.50;;;16.00;47.70;;;;;;5126257;28;20096;-50
2024/04/07 04:39:38;;;;;;;51.35;16.35;;;16.00;48.60;;;;;;5128885;28;20072;-49
2024/04/07 04:42:04;;;;;;;35.40;14.93;;;16.00;48.50;;;;;;5109435;27;20067;-50
2024/04/07 04:44:31;;;;;;;58.85;15.80;;;16.00;48.40;;;;;;5130767;27;20068;-49
2024/04/07 04:46:57;;;;;;;50.90;15.10;;;16.00;49.30;;;;;;5131025;27;20121;-47
2024/04/07 04:49:24;;;;;;;55.60;16.48;;;15.90;49.70;;;;;;5128692;27;20163;-50
2024/04/07 04:51:54;;;;;;;43.88;18.13;;;15.90;50.40;;;;;;5131488;27;20067;-52
2024/04/07 04:54:20;;;;;;;44.78;17.10;;;15.80;50.00;;;;;;5131151;27;20064;-47
2024/04/07 04:56:47;;;;;;;53.63;16.65;;;15.80;49.70;;;;;;5132352;27;20071;-49
2024/04/07 04:59:14;;;;;;;44.08;16.65;;;15.80;50.60;;;;;;5131199;27;20116;-49
2024/04/07 05:01:40;;;;;;;48.50;15.63;;;15.70;49.80;;;;;;5131117;27;20099;-48
2024/04/07 05:04:06;;;;;;;44.15;14.98;;;15.60;50.60;;;;;;5131413;27;20514;-52
2024/04/07 05:06:33;;;;;;;44.03;15.90;;;15.60;49.80;;;;;;5132375;27;20115;-48
2024/04/07 05:08:59;;;;;;;48.50;16.00;;;15.60;50.00;;;;;;5133023;27;20148;-48
2024/04/07 05:11:26;;;;;;;61.92;15.98;;;15.60;48.90;;;;;;5131675;27;20067;-47
2024/04/07 05:13:53;;;;;;;49.20;14.77;;;15.60;48.80;;;;;;5131584;27;20072;-47
2024/04/07 05:16:20;;;;;;;45.83;14.55;;;15.50;49.80;;;;;;5131522;27;20485;-46
2024/04/07 05:18:46;;;;;;;51.53;15.50;;;15.60;50.20;;;;;;5130763;27;20124;-50
2024/04/07 05:21:13;;;;;;;48.47;15.32;;;15.60;50.30;;;;;;5128904;27;20092;-48
2024/04/07 05:23:40;;;;;;;63.42;17.25;;;15.50;50.50;;;;;;5130352;27;20072;-47
2024/04/07 05:26:13;;;;;;;57.25;16.08;;;15.40;50.20;;;;;;5131870;27;20096;-47
2024/04/07 05:28:40;;;;;;;70.82;18.13;;;15.40;50.40;;;;;;5131536;27;20071;-50
2024/04/07 05:31:13;;;;;;;80.78;18.80;;;15.30;50.10;;;;;;5120663;27;20168;-48
2024/04/07 05:33:40;;;;;;;67.05;19.00;;;15.30;50.00;;;;;;5112545;27;20079;-47
2024/04/07 05:36:07;;;;;;;73.88;21.17;;;15.30;49.80;;;;;;5130655;27;20113;-49
2024/04/07 05:38:38;;;;;;;101.93;21.77;;;15.30;50.10;;;;;;5125651;27;20114;-51
2024/04/07 05:41:06;;;;;;;81.80;22.52;;;15.30;50.50;;;;;;5127042;27;20155;-47
2024/04/07 05:43:33;;;;;;;105.80;23.55;;;15.20;49.90;;;;;;5107505;27;20071;-47
2024/04/07 05:46:04;;;;;;;111.50;24.20;;;15.20;50.00;;;;;;5117628;27;20178;-46
2024/04/07 05:48:31;;;;;;;77.88;22.73;;;15.10;51.20;;;;;;5102824;27;20076;-49
2024/04/07 05:50:59;;;;;;;82.68;21.80;;;15.20;51.70;;;;;;5112947;27;20097;-49
2024/04/07 05:53:25;;;;;;;81.50;22.92;;;15.20;52.30;;;;;;5111710;27;20071;-48
2024/04/07 05:55:52;;;;;;;103.40;24.58;;;15.10;51.80;;;;;;5111661;27;20074;-50
2024/04/07 05:58:18;;;;;;;114.82;27.88;;;15.10;51.80;;;;;;5127066;27;20082;-48
2024/04/07 06:00:45;;;;;;;92.30;27.25;;;15.00;51.30;;;;;;5131015;27;20063;-51
2024/04/07 06:03:11;;;;;;;114.30;27.95;;;15.00;51.60;;;;;;5127314;27;20060;-51
2024/04/07 06:05:39;;;;;;;95.57;28.33;;;14.90;51.80;;;;;;5130822;27;20154;-48
2024/04/07 06:08:10;;;;;;;102.38;28.15;;;14.90;52.30;;;;;;5126733;27;20110;-54
2024/04/07 06:10:36;;;;;;;98.55;26.67;;;14.90;52.40;;;;;;5129905;27;20071;-48
2024/04/07 06:13:04;;;;;;;105.15;28.33;;;14.90;52.70;;;;;;5110687;27;20571;-51
2024/04/07 06:15:32;;;;;;;83.82;25.88;;;14.90;53.30;;;;;;5110164;27;20068;-49
2024/04/07 06:17:58;;;;;;;103.22;27.17;;;14.90;53.80;;;;;;5129507;27;20068;-51
2024/04/07 06:20:25;;;;;;;104.20;27.27;;;14.90;53.90;;;;;;5110531;27;20581;-49
2024/04/07 06:22:52;;;;;;;117.00;27.02;;;14.80;53.20;;;;;;5128720;27;20082;-48
2024/04/07 06:25:19;;;;;;;114.53;27.98;;;14.80;54.30;;;;;;5129461;27;20072;-51
2024/04/07 06:27:46;;;;;;;116.68;29.95;;;14.80;53.90;;;;;;5129571;27;20424;-48
2024/04/07 06:30:13;;;;;;;101.75;29.05;;;14.70;53.20;;;;;;5130607;27;20079;-49
2024/04/07 06:32:39;;;;;;;115.78;30.52;;;14.60;53.20;;;;;;5111337;27;20888;-48
2024/04/07 06:35:06;;;;;;;104.97;29.83;;;14.50;52.50;;;;;;5110850;27;20072;-47
2024/04/07 06:37:33;;;;;;;120.40;30.13;;;14.50;52.80;;;;;;5130227;27;20078;-50
2024/04/07 06:40:00;;;;;;;109.68;29.95;;;14.60;53.30;;;;;;5129451;27;20067;-47
2024/04/07 06:42:32;;;;;;;102.47;30.30;;;14.50;53.80;;;;;;5128260;27;20067;-51
2024/04/07 06:44:59;;;;;;;106.93;29.98;;;14.50;54.10;;;;;;5125189;27;20095;-48
2024/04/07 06:47:27;;;;;;;105.82;28.40;;;14.50;54.30;;;;;;5126101;27;20118;-48
2024/04/07 06:49:56;;;;;;;98.43;30.08;;;14.50;53.90;;;;;;5129130;27;20154;-51
2024/04/07 06:52:23;;;;;;;104.70;28.83;;;14.50;55.40;;;;;;5126663;27;20517;-48
2024/04/07 06:54:52;;;;;;;91.20;27.88;;;14.40;54.40;;;;;;5112110;27;20068;-51
2024/04/07 06:57:21;;;;;;;100.57;27.48;;;14.40;54.30;;;;;;5128695;27;20108;-48
2024/04/07 06:59:50;;;;;;;112.75;27.15;;;14.40;54.70;;;;;;5123080;27;20072;-51
2024/04/07 07:02:17;;;;;;;96.72;27.40;;;14.30;54.90;;;;;;5129268;27;20162;-50
2024/04/07 07:04:44;;;;;;;111.35;29.50;;;14.20;54.80;;;;;;5124522;27;20531;-49
2024/04/07 07:07:10;;;;;;;110.00;28.27;;;14.30;55.10;;;;;;5106174;28;20111;-52
2024/04/07 07:09:37;;;;;;;92.40;25.60;;;14.30;56.10;;;;;;5109891;28;20181;-49
2024/04/07 07:12:04;;;;;;;86.93;26.33;;;14.30;55.60;;;;;;5103186;28;20068;-51
2024/04/07 07:14:31;;;;;;;114.72;26.83;;;14.30;55.30;;;;;;5108965;28;20072;-49
2024/04/07 07:16:58;;;;;;;91.45;26.35;;;14.20;55.60;;;;;;5108907;28;20072;-48
2024/04/07 07:19:25;;;;;;;86.43;26.10;;;14.10;55.40;;;;;;5105701;28;20122;-48
2024/04/07 07:21:52;;;;;;;92.05;26.02;;;14.10;55.20;;;;;;5108199;28;20576;-48
2024/04/07 07:24:19;;;;;;;95.43;26.63;;;14.10;55.40;;;;;;5107626;28;20394;-55
2024/04/07 07:26:45;;;;;;;82.20;25.98;;;14.20;55.30;;;;;;5107803;28;20151;-47
2024/04/07 07:29:12;;;;;;;91.25;26.80;;;14.10;55.20;;;;;;5107698;28;20846;-48
2024/04/07 07:31:39;;;;;;;102.88;28.77;;;14.10;56.10;;;;;;5107972;28;20201;-48
2024/04/07 07:34:07;;;;;;;114.45;27.75;;;14.00;56.70;;;;;;5105229;28;20065;-46
2024/04/07 07:36:35;;;;;;;88.40;25.63;;;13.90;55.50;;;;;;5104496;28;20081;-47
2024/04/07 07:39:03;;;;;;;96.13;26.08;;;13.90;54.70;;;;;;5101964;28;20506;-47
2024/04/07 07:41:29;;;;;;;87.72;25.48;;;13.80;55.00;;;;;;5108798;28;20084;-47
2024/04/07 07:43:55;;;;;;;;;;;13.80;54.70;;;;;;5108549;28;20098;-47
2024/04/07 07:46:22;;;;;;;85.40;25.50;;;13.80;55.20;;;;;;5104530;28;19976;-48
2024/04/07 07:48:49;;;;;;;87.60;24.38;;;13.70;55.70;;;;;;5102374;28;20064;-49
2024/04/07 07:51:17;;;;;;;103.90;26.02;;;13.70;55.50;;;;;;5107395;28;20479;-52
2024/04/07 07:53:43;;;;;;;75.43;23.23;;;13.70;55.40;;;;;;5104697;28;20552;-47
2024/04/07 07:56:10;;;;;;;84.55;24.42;;;13.70;55.70;;;;;;5104972;28;20064;-47
2024/04/07 07:58:38;;;;;;;73.35;22.80;;;13.70;55.40;;;;;;5106435;28;20118;-46
2024/04/07 08:01:05;;;;;;;90.95;25.25;;;13.70;55.30;;;;;;5103263;28;20185;-47
2024/04/07 08:03:32;;;;;;;83.07;24.02;;;13.70;55.90;;;;;;5105271;28;20068;-46
2024/04/07 08:05:59;;;;;;;92.05;23.75;;;13.60;56.60;;;;;;5107419;27;20198;-51
2024/04/07 08:08:26;;;;;;;93.38;24.08;;;13.60;56.10;;;;;;5109155;27;20155;-47
2024/04/07 08:10:53;;;;;;;104.60;23.40;;;13.50;56.40;;;;;;5129426;27;20060;-49
2024/04/07 08:13:19;;;;;;;76.85;23.60;;;13.50;56.20;;;;;;5126669;27;20063;-49
2024/04/07 08:15:46;;;;;;;85.45;23.65;;;13.50;56.00;;;;;;5129238;28;20075;-47
2024/04/07 08:18:13;;;;;;;82.15;22.23;;;13.50;55.80;;;;;;5127974;27;20071;-51
2024/04/07 08:20:42;;;;;;;72.47;23.73;;;13.50;55.70;;;;;;5127679;28;20072;-48
2024/04/07 08:23:09;;;;;;;79.68;23.42;;;13.50;56.30;;;;;;5127111;28;20097;-49
2024/04/07 08:25:36;;;;;;;96.10;23.30;;;13.50;58.30;;;;;;5126378;28;20072;-48
2024/04/07 08:28:06;;;;;;;90.45;22.58;;;13.40;57.80;;;;;;5128188;28;20068;-57
2024/04/07 08:30:33;;;;;;;91.10;25.77;;;13.40;57.80;;;;;;5127382;28;20532;-51
2024/04/07 08:33:00;;;;;;;76.57;24.05;;;13.40;57.10;;;;;;5128625;28;20063;-47
2024/04/07 08:35:26;;;;;;;83.63;23.00;;;13.30;58.00;;;;;;5108477;28;20063;-49
2024/04/07 08:37:54;;;;;;;88.95;25.27;;;13.30;58.00;;;;;;5108407;28;20099;-49
2024/04/07 08:40:21;;;;;;;87.97;22.48;;;13.30;57.50;;;;;;5128214;28;20094;-48
2024/04/07 08:42:49;;;;;;;91.40;23.38;;;13.30;57.40;;;;;;5127052;28;20076;-51
2024/04/07 08:45:19;;;;;;;103.78;24.85;;;13.30;57.50;;;;;;5126394;28;20128;-48
2024/04/07 08:47:46;;;;;;;111.50;24.73;;;13.30;57.90;;;;;;5124603;28;20525;-52
2024/04/07 08:50:13;;;;;;;86.63;23.00;;;13.20;57.90;;;;;;5127231;28;20095;-48
2024/04/07 08:52:43;;;;;;;97.45;23.38;;;13.20;57.70;;;;;;5123171;28;20072;-47
2024/04/07 08:55:09;;;;;;;93.70;23.50;;;13.30;57.40;;;;;;5125886;28;20072;-54
2024/04/07 08:57:40;;;;;;;104.13;23.02;;;13.30;57.80;;;;;;5126024;28;20124;-62
2024/04/07 09:00:08;;;;;;;101.65;23.73;;;13.80;58.60;;;;;;5127459;28;20087;-62
2024/04/07 09:02:36;;;;;;;91.15;23.90;;;14.50;56.80;;;;;;5126067;28;20132;-62
2024/04/07 09:05:04;;;;;;;95.85;23.70;;;15.00;55.50;;;;;;5127782;28;20067;-62
2024/04/07 09:07:30;;;;;;;90.32;25.52;;;15.40;54.50;;;;;;5127789;28;20224;-62
2024/04/07 09:09:57;;;;;;;95.70;25.45;;;15.90;54.30;;;;;;5127426;28;20098;-62
2024/04/07 09:12:23;;;;;;;96.22;26.25;;;15.90;53.30;;;;;;5118549;28;20060;-62
2024/04/07 09:14:50;;;;;;;98.07;25.33;;;15.70;53.90;;;;;;5120593;28;20537;-61
2024/04/07 09:17:17;;;;;;;104.13;25.67;;;16.00;53.40;;;;;;5111512;28;20082;-61
2024/04/07 09:19:44;;;;;;;89.03;26.73;;;16.00;52.50;;;;;;5112730;28;20079;-61
2024/04/07 09:22:10;;;;;;;98.05;26.63;;;15.60;52.10;;;;;;5130491;28;20094;-62
2024/04/07 09:24:38;;;;;;;120.20;29.70;;;15.40;53.30;;;;;;5125197;28;20068;-62
2024/04/07 09:27:12;;;;;;;125.72;29.20;;;15.30;54.60;;;;;;5126191;28;20099;-62
2024/04/07 09:29:42;;;;;;;102.20;29.17;;;15.30;54.00;;;;;;5109481;27;20075;-62
2024/04/07 09:32:09;;;;;;;104.68;29.20;;;15.50;53.80;;;;;;5131093;27;20128;-62
2024/04/07 09:34:36;;;;;;;112.88;30.23;;;15.60;53.10;;;;;;5129698;27;20071;-62
2024/04/07 09:37:06;;;;;;;114.50;30.65;;;15.60;52.80;;;;;;5112608;27;20068;-62
2024/04/07 09:39:32;;;;;;;111.80;31.63;;;15.70;53.20;;;;;;5128597;27;20547;-62
2024/04/07 09:42:01;;;;;;;124.13;32.08;;;15.80;52.50;;;;;;5132155;27;20112;-62
2024/04/07 09:44:34;;;;;;;101.95;31.98;;;15.60;53.10;;;;;;5131534;27;20064;-63
2024/04/07 09:47:09;;;;;;;117.35;32.45;;;15.50;53.80;;;;;;5131590;27;20546;-61
2024/04/07 09:49:40;;;;;;;114.38;34.17;;;15.30;54.20;;;;;;5130050;27;20516;-61
2024/04/07 09:52:08;;;;;;;130.65;37.20;;;15.20;54.80;;;;;;5133316;27;20102;-62
2024/04/07 09:54:44;;;;;;;130.63;37.67;;;15.00;54.70;;;;;;5129598;27;20509;-61
2024/04/07 09:57:13;;;;;;;132.97;37.50;;;15.10;55.00;;;;;;5134792;27;20584;-62
2024/04/07 09:59:42;;;;;;;124.38;37.60;;;15.00;55.40;;;;;;5130246;27;20072;-61
2024/04/07 10:02:11;;;;;;;134.07;39.05;;;14.80;56.10;;;;;;5128923;27;20063;-61
2024/04/07 10:04:39;;;;;;;149.85;37.28;;;14.50;56.50;;;;;;5130916;27;20074;-63
2024/04/07 10:07:07;;;;;;;140.75;37.58;;;14.40;56.60;;;;;;5131437;27;20103;-61
2024/04/07 10:09:35;;;;;;;127.63;36.72;;;14.50;57.00;;;;;;5132256;27;20124;-61
2024/04/07 10:12:02;;;;;;;120.60;36.60;;;14.70;56.30;;;;;;5107392;27;20063;-62
2024/04/07 10:14:41;;;;;;;124.55;37.22;;;14.60;56.00;;;;;;5131374;27;20598;-61
2024/04/07 10:17:10;;;;;;;157.55;39.40;;;14.40;56.20;;;;;;5111422;27;20184;-61
2024/04/07 10:19:46;;;;;;;133.70;39.22;;;14.40;56.70;;;;;;5131593;27;20095;-61
2024/04/07 10:22:15;;;;;;;129.27;36.80;;;14.10;57.30;;;;;;5107874;27;20067;-61
2024/04/07 10:24:42;;;;;;;130.05;37.65;;;14.10;57.10;;;;;;5124806;27;20076;-60
2024/04/07 10:27:10;;;;;;;120.82;35.65;;;14.20;57.10;;;;;;5129448;27;20096;-61
2024/04/07 10:29:38;;;;;;;121.43;35.78;;;14.00;56.70;;;;;;5121911;27;20068;-62
2024/04/07 10:32:16;;;;;;;114.82;32.65;;;13.90;57.90;;;;;;5125528;27;20063;-61
2024/04/07 10:35:22;;;;;;;109.22;33.05;;;14.00;57.20;;;;;;5121858;27;20063;-61
2024/04/07 10:37:51;;;;;;;95.80;28.23;;;14.00;57.20;;;;;;5048255;28;20089;-62
2024/04/07 10:40:19;;;;;;;98.15;28.10;;;13.90;56.50;;;;;;5117472;27;20080;-61
2024/04/07 10:42:45;;;;;;;97.72;27.63;;;13.80;57.20;;;;;;5127178;27;20428;-61
2024/04/07 10:45:12;;;;;;;96.10;26.67;;;13.90;56.40;;;;;;5107843;27;20453;-61
2024/04/07 10:47:40;;;;;;;87.75;24.80;;;13.80;56.50;;;;;;5117273;27;20183;-61
2024/04/07 10:50:08;;;;;;;91.70;26.00;;;13.80;56.50;;;;;;5127279;27;20107;-63
2024/04/07 10:52:34;;;;;;;78.15;23.98;;;13.90;56.60;;;;;;5113188;27;20090;-61
2024/04/07 10:55:01;;;;;;;92.10;27.30;;;13.80;56.50;;;;;;5123030;27;20064;-60
2024/04/07 10:57:27;;;;;;;99.25;24.20;;;13.70;56.70;;;;;;5120514;27;20074;-61
2024/04/07 10:59:54;;;;;;;94.60;24.92;;;13.80;56.70;;;;;;5129922;27;20064;-61
2024/04/07 11:02:21;;;;;;;77.38;23.15;;;13.70;56.50;;;;;;5130169;27;20095;-62
2024/04/07 11:04:47;;;;;;;81.68;22.92;;;13.60;57.00;;;;;;5123859;27;20068;-61
2024/04/07 11:07:14;;;;;;;86.40;20.90;;;13.60;57.10;;;;;;5128990;27;20107;-62
2024/04/07 11:09:42;;;;;;;67.28;19.15;;;13.50;57.20;;;;;;5116817;27;20076;-62
2024/04/07 11:12:09;;;;;;;68.43;17.67;;;13.40;57.40;;;;;;5101537;28;20517;-61
2024/04/07 11:14:36;;;;;;;56.97;16.05;;;13.30;57.80;;;;;;5125113;27;20093;-61
2024/04/07 11:17:07;;;;;;;60.47;15.68;;;13.30;57.90;;;;;;5131052;27;20076;-62
2024/04/07 11:19:35;;;;;;;45.38;15.13;;;13.30;58.10;;;;;;5130140;27;20512;-61
2024/04/07 11:22:03;;;;;;;55.60;15.82;;;13.20;57.90;;;;;;5123878;27;20071;-62
2024/04/07 11:24:31;;;;;;;52.50;15.88;;;13.30;57.90;;;;;;5124305;27;20103;-62
2024/04/07 11:26:57;;;;;;;53.08;16.00;;;13.30;58.00;;;;;;5131500;27;20115;-62
2024/04/07 11:29:25;;;;;;;61.67;17.33;;;13.20;58.30;;;;;;5128707;27;20072;-61
2024/04/07 11:31:53;;;;;;;49.92;15.50;;;13.10;58.40;;;;;;5130306;27;20581;-62
2024/04/07 11:34:25;;;;;;;49.45;16.17;;;13.10;58.40;;;;;;5129696;27;20075;-61
2024/04/07 11:36:51;;;;;;;50.03;15.20;;;13.00;58.70;;;;;;5128851;27;20163;-62
2024/04/07 11:39:18;;;;;;;63.20;16.98;;;13.00;59.10;;;;;;5129680;27;20098;-62
2024/04/07 11:41:46;;;;;;;52.90;15.90;;;12.90;59.10;;;;;;5129617;27;20094;-62
2024/04/07 11:44:12;;;;;;;55.83;15.07;;;12.90;59.20;;;;;;5128861;27;20068;-61
2024/04/07 11:46:39;;;;;;;50.50;15.32;;;12.80;59.40;;;;;;5129414;27;20147;-61
2024/04/07 11:49:05;;;;;;;56.35;14.43;;;12.70;59.90;;;;;;5129777;27;20623;-61
2024/04/07 11:51:33;;;;;;;49.72;14.77;;;12.70;60.10;;;;;;5127136;27;20116;-61
2024/04/07 11:53:59;;;;;;;48.83;14.68;;;12.70;60.60;;;;;;5128080;27;20060;-61
2024/04/07 11:56:26;;;;;;;54.53;15.70;;;12.80;60.20;;;;;;5127261;27;20169;-62
2024/04/07 11:58:52;;;;;;;52.17;14.90;;;12.70;60.20;;;;;;5124528;27;20071;-61
2024/04/07 12:01:19;;;;;;;63.63;17.40;;;12.50;61.50;;;;;;5130298;27;20068;-61
2024/04/07 12:03:46;;;;;;;45.95;14.65;;;12.50;61.50;;;;;;5109620;27;20071;-61
2024/04/07 12:06:12;;;;;;;52.83;13.48;;;12.60;61.40;;;;;;5119429;27;20261;-62
2024/04/07 12:08:39;;;;;;;48.78;13.80;;;12.30;62.00;;;;;;5111553;27;20521;-61
2024/04/07 12:11:06;;;;;;;47.78;13.73;;;12.10;62.50;;;;;;5120734;27;20155;-61
2024/04/07 12:13:32;;;;;;;51.00;12.85;;;11.90;63.20;;;;;;5107800;28;20476;-62
2024/04/07 12:15:59;;;;;;;46.65;12.50;;;12.10;63.40;;;;;;5127672;28;20064;-62
2024/04/07 12:18:25;;;;;;;41.92;11.82;;;12.00;63.20;;;;;;5129200;28;20210;-62
2024/04/07 12:20:51;;;;;;;48.53;13.13;;;11.90;65.10;;;;;;5127226;28;20541;-62
2024/04/07 12:23:19;;;;;;;39.00;11.98;;;11.90;64.80;;;;;;5125965;28;20075;-62
2024/04/07 12:25:45;;;;;;;36.92;12.65;;;12.10;64.50;;;;;;5111349;28;20197;-62
2024/04/07 12:28:14;;;;;;;39.90;11.85;;;11.90;64.30;;;;;;5125616;28;20081;-62
2024/04/07 12:30:41;;;;;;;37.88;11.75;;;11.70;65.10;;;;;;5125508;28;20178;-62
2024/04/07 12:33:07;;;;;;;41.10;12.50;;;11.80;65.30;;;;;;5103675;28;20076;-62
2024/04/07 12:35:35;;;;;;;35.05;10.38;;;11.80;65.10;;;;;;5104000;28;20072;-62